createdAt,value
2022-09-29T00:01:02.584Z,6.50
2022-09-29T00:03:31.055Z,6.50
2022-09-29T00:05:59.007Z,6.40
2022-09-29T00:08:31.431Z,6.40
2022-09-29T00:10:59.368Z,6.30
2022-09-29T00:13:28.730Z,6.30
2022-09-29T00:15:58.367Z,6.40
2022-09-29T00:18:26.895Z,6.30
2022-09-29T00:20:59.174Z,6.30
2022-09-29T00:23:27.896Z,6.30
2022-09-29T00:26:08.927Z,6.30
2022-09-29T00:28:40.369Z,6.30
2022-09-29T00:31:09.859Z,6.30
2022-09-29T00:33:40.303Z,6.30
2022-09-29T00:36:12.592Z,6.20
2022-09-29T00:38:41.545Z,6.20
2022-09-29T00:41:10.467Z,6.20
2022-09-29T00:43:58.086Z,6.30
2022-09-29T00:46:34.844Z,6.20
2022-09-29T00:49:06.799Z,6.20
2022-09-29T00:51:38.677Z,6.20
2022-09-29T00:54:09.030Z,6.20
2022-09-29T00:56:39.673Z,6.20
2022-09-29T00:59:14.309Z,6.20
2022-09-29T01:01:42.351Z,6.10
2022-09-29T01:04:14.412Z,6.10
2022-09-29T01:06:45.880Z,6.00
2022-09-29T01:09:18.601Z,6.00
2022-09-29T01:11:46.837Z,6.00
2022-09-29T01:14:17.465Z,5.90
2022-09-29T01:16:46.110Z,5.90
2022-09-29T01:19:18.639Z,5.90
2022-09-29T01:21:59.562Z,6.00
2022-09-29T01:24:51.958Z,5.90
2022-09-29T01:27:46.154Z,6.00
2022-09-29T01:30:21.545Z,6.00
2022-09-29T01:33:18.583Z,6.00
2022-09-29T01:35:55.275Z,6.10
2022-09-29T01:38:37.834Z,6.10
2022-09-29T01:41:11.751Z,6.10
2022-09-29T01:43:45.026Z,6.10
2022-09-29T01:46:18.705Z,6.00
2022-09-29T01:48:53.314Z,5.90
2022-09-29T01:51:26.574Z,5.90
2022-09-29T01:53:59.140Z,5.90
2022-09-29T01:56:30.934Z,5.80
2022-09-29T01:59:05.049Z,5.80
2022-09-29T02:01:39.843Z,5.90
2022-09-29T02:04:14.844Z,5.80
2022-09-29T02:06:50.190Z,5.80
2022-09-29T02:09:24.328Z,5.80
2022-09-29T02:11:54.067Z,5.70
2022-09-29T02:14:26.224Z,5.60
2022-09-29T02:17:01.510Z,5.70
2022-09-29T02:19:34.805Z,5.70
2022-09-29T02:22:02.921Z,5.70
2022-09-29T02:24:31.922Z,5.70
2022-09-29T02:26:59.828Z,5.70
2022-09-29T02:29:28.457Z,5.50
2022-09-29T02:31:57.291Z,5.60
2022-09-29T02:34:26.491Z,5.50
2022-09-29T02:37:03.275Z,5.40
2022-09-29T02:39:41.967Z,5.30
2022-09-29T02:42:20.040Z,5.30
2022-09-29T02:45:04.356Z,5.20
2022-09-29T02:47:46.978Z,5.30
2022-09-29T02:50:32.829Z,5.20
2022-09-29T02:55:43.571Z,5.30
2022-09-29T02:58:16.637Z,5.30
2022-09-29T03:00:45.703Z,5.30
2022-09-29T03:03:13.716Z,5.40
2022-09-29T03:05:41.684Z,5.30
2022-09-29T03:08:09.654Z,5.20
2022-09-29T03:10:38.977Z,5.20
2022-09-29T03:13:06.865Z,5.30
2022-09-29T03:15:34.873Z,5.30
2022-09-29T03:18:09.364Z,5.30
2022-09-29T03:20:38.043Z,5.20
2022-09-29T03:23:05.992Z,5.30
2022-09-29T03:25:33.999Z,5.40
2022-09-29T03:28:03.388Z,5.40
2022-09-29T03:30:31.433Z,5.20
2022-09-29T03:32:59.463Z,5.20
2022-09-29T03:35:27.631Z,5.30
2022-09-29T03:37:58.942Z,5.30
2022-09-29T03:40:27.291Z,5.40
2022-09-29T03:42:55.251Z,5.60
2022-09-29T03:45:24.683Z,5.60
2022-09-29T03:47:52.695Z,5.50
2022-09-29T03:50:20.726Z,5.50
2022-09-29T03:52:48.578Z,5.40
2022-09-29T03:55:16.730Z,5.40
2022-09-29T03:57:44.627Z,5.40
2022-09-29T04:00:13.968Z,5.40
2022-09-29T04:02:43.292Z,5.30
2022-09-29T04:05:11.144Z,5.20
2022-09-29T04:07:39.229Z,5.20
2022-09-29T04:10:07.646Z,5.30
2022-09-29T04:12:35.608Z,5.30
2022-09-29T04:15:03.736Z,5.20
2022-09-29T04:17:31.601Z,5.20
2022-09-29T04:20:01.483Z,5.40
2022-09-29T04:22:29.423Z,5.50
2022-09-29T04:24:57.328Z,5.50
2022-09-29T04:27:25.222Z,5.40
2022-09-29T04:29:53.271Z,5.40
2022-09-29T04:32:21.181Z,5.30
2022-09-29T04:34:49.328Z,5.20
2022-09-29T04:37:18.576Z,5.20
2022-09-29T04:39:46.440Z,5.10
2022-09-29T04:42:14.351Z,5.10
2022-09-29T04:44:42.335Z,5.10
2022-09-29T04:47:10.274Z,5.10
2022-09-29T04:49:38.368Z,5.10
2022-09-29T04:52:06.560Z,5.10
2022-09-29T04:54:38.050Z,5.20
2022-09-29T04:57:06.572Z,5.20
2022-09-29T04:59:35.015Z,5.20
2022-09-29T05:02:03.089Z,5.10
2022-09-29T05:04:32.190Z,5.10
2022-09-29T05:07:00.333Z,5.10
2022-09-29T05:09:32.965Z,5.10
2022-09-29T05:12:05.410Z,5.20
2022-09-29T05:14:33.664Z,5.20
2022-09-29T05:17:01.637Z,5.20
2022-09-29T05:19:30.154Z,5.20
2022-09-29T05:21:58.044Z,5.20
2022-09-29T05:24:26.088Z,5.10
2022-09-29T05:26:58.269Z,5.10
2022-09-29T05:29:28.007Z,5.10
2022-09-29T05:31:56.078Z,5.10
2022-09-29T05:34:24.034Z,5.10
2022-09-29T05:36:52.163Z,5.00
2022-09-29T05:39:21.257Z,5.00
2022-09-29T05:41:50.362Z,4.90
2022-09-29T05:44:18.353Z,5.00
2022-09-29T05:46:48.599Z,5.00
2022-09-29T05:49:18.607Z,5.20
2022-09-29T05:51:46.781Z,5.20
2022-09-29T05:54:15.238Z,5.20
2022-09-29T05:56:45.314Z,5.10
2022-09-29T05:59:13.803Z,5.20
2022-09-29T06:01:41.837Z,5.30
2022-09-29T06:04:11.106Z,5.40
2022-09-29T06:06:40.251Z,5.50
2022-09-29T06:09:09.016Z,5.60
2022-09-29T06:11:36.946Z,5.60
2022-09-29T06:14:05.415Z,5.60
2022-09-29T06:16:34.858Z,5.70
2022-09-29T06:19:03.430Z,5.70
2022-09-29T06:21:34.715Z,5.60
2022-09-29T06:24:03.365Z,5.70
2022-09-29T06:26:31.355Z,5.80
2022-09-29T06:28:59.565Z,6.00
2022-09-29T06:31:29.863Z,5.90
2022-09-29T06:33:59.568Z,5.90
2022-09-29T06:36:48.433Z,5.90
2022-09-29T06:39:18.458Z,6.00
2022-09-29T06:41:52.094Z,6.10
2022-09-29T06:44:20.670Z,6.10
2022-09-29T06:46:49.213Z,6.10
2022-09-29T06:49:17.152Z,6.30
2022-09-29T06:51:46.604Z,6.30
2022-09-29T06:54:16.066Z,6.30
2022-09-29T06:56:48.108Z,6.30
2022-09-29T06:59:16.390Z,6.30
2022-09-29T07:01:51.027Z,6.30
2022-09-29T07:04:20.865Z,6.50
2022-09-29T07:06:49.637Z,6.60
2022-09-29T07:09:18.191Z,6.80
2022-09-29T07:11:49.834Z,6.70
2022-09-29T07:14:19.072Z,6.80
2022-09-29T07:16:47.219Z,7.00
2022-09-29T07:19:16.171Z,7.10
2022-09-29T07:21:44.077Z,7.10
2022-09-29T07:24:12.938Z,7.20
2022-09-29T07:26:40.838Z,7.40
2022-09-29T07:29:15.241Z,7.40
2022-09-29T07:31:50.965Z,7.30
2022-09-29T07:34:20.143Z,7.30
2022-09-29T07:36:48.118Z,7.50
2022-09-29T07:39:16.268Z,7.80
2022-09-29T07:41:44.237Z,7.90
2022-09-29T07:44:13.532Z,8.10
2022-09-29T07:46:41.621Z,7.80
2022-09-29T07:49:09.636Z,7.80
2022-09-29T07:51:37.576Z,8.10
2022-09-29T07:54:06.233Z,8.20
2022-09-29T07:56:35.343Z,8.20
2022-09-29T07:59:04.276Z,8.20
2022-09-29T08:01:34.450Z,8.30
2022-09-29T08:04:03.096Z,8.40
2022-09-29T08:06:31.106Z,8.50
2022-09-29T08:09:04.741Z,8.60
2022-09-29T08:11:34.206Z,8.50
2022-09-29T08:14:02.909Z,8.50
2022-09-29T08:16:31.615Z,8.70
2022-09-29T08:19:01.444Z,8.60
2022-09-29T08:21:29.768Z,8.70
2022-09-29T08:23:57.700Z,8.60
2022-09-29T08:26:38.434Z,8.60
2022-09-29T08:29:09.299Z,8.70
2022-09-29T08:31:38.962Z,8.90
2022-09-29T08:34:08.479Z,8.80
2022-09-29T08:36:37.236Z,8.80
2022-09-29T08:39:05.635Z,9.00
2022-09-29T08:41:47.461Z,9.10
2022-09-29T08:44:35.582Z,8.80
2022-09-29T08:47:13.244Z,8.60
2022-09-29T08:49:46.617Z,8.80
2022-09-29T08:52:18.386Z,8.70
2022-09-29T08:54:49.883Z,8.60
2022-09-29T08:57:19.757Z,8.60
2022-09-29T08:59:54.456Z,8.70
2022-09-29T09:02:38.879Z,8.80
2022-09-29T09:05:18.507Z,9.00
2022-09-29T09:08:00.564Z,8.80
2022-09-29T09:10:42.818Z,9.30
2022-09-29T09:13:28.139Z,9.40
2022-09-29T09:16:15.624Z,9.40
2022-09-29T09:19:07.515Z,9.50
2022-09-29T09:21:42.814Z,9.50
2022-09-29T09:24:20.321Z,9.60
2022-09-29T09:26:52.166Z,10.00
2022-09-29T09:29:28.260Z,10.20
2022-09-29T09:32:02.009Z,10.10
2022-09-29T09:34:43.816Z,10.30
2022-09-29T09:37:20.342Z,10.40
2022-09-29T09:39:55.291Z,10.60
2022-09-29T09:42:27.838Z,10.70
2022-09-29T09:45:00.583Z,10.80
2022-09-29T09:47:32.254Z,10.60
2022-09-29T09:50:03.818Z,10.50
2022-09-29T09:52:41.786Z,10.50
2022-09-29T09:55:16.799Z,10.80
2022-09-29T09:58:05.135Z,11.00
2022-09-29T10:00:37.286Z,11.20
2022-09-29T10:03:08.533Z,11.20
2022-09-29T10:05:39.392Z,11.20
2022-09-29T10:08:13.674Z,11.30
2022-09-29T10:10:56.821Z,11.40
2022-09-29T10:13:28.773Z,11.40
2022-09-29T10:16:00.792Z,11.50
2022-09-29T10:18:33.258Z,11.30
2022-09-29T10:21:01.134Z,11.30
2022-09-29T10:23:32.482Z,11.20
2022-09-29T10:26:05.443Z,11.20
2022-09-29T10:28:41.865Z,11.30
2022-09-29T10:31:22.075Z,11.40
2022-09-29T10:33:53.535Z,11.40
2022-09-29T10:36:22.889Z,11.70
2022-09-29T10:38:54.345Z,11.80
2022-09-29T10:41:22.211Z,12.00
2022-09-29T10:43:52.855Z,12.20
2022-09-29T10:46:50.065Z,12.10
2022-09-29T10:49:19.957Z,11.80
2022-09-29T10:52:03.590Z,12.30
2022-09-29T10:54:35.418Z,12.10
2022-09-29T10:57:15.400Z,12.20
2022-09-29T10:59:51.284Z,12.20
2022-09-29T11:02:24.909Z,12.70
2022-09-29T11:04:54.887Z,12.70
2022-09-29T11:07:23.036Z,12.20
2022-09-29T11:09:54.862Z,12.30
2022-09-29T11:12:34.577Z,12.40
2022-09-29T11:15:03.354Z,12.30
2022-09-29T11:17:32.893Z,12.40
2022-09-29T11:20:03.261Z,12.80
2022-09-29T11:23:01.427Z,12.90
2022-09-29T11:26:10.580Z,12.80
2022-09-29T11:29:07.556Z,13.20
2022-09-29T11:31:46.490Z,13.00
2022-09-29T11:34:38.805Z,12.90
2022-09-29T11:37:19.613Z,13.00
2022-09-29T11:39:56.129Z,12.80
2022-09-29T11:42:37.476Z,12.90
2022-09-29T11:45:15.276Z,12.80
2022-09-29T11:48:04.574Z,13.20
2022-09-29T11:50:44.793Z,13.30
2022-09-29T11:53:27.104Z,13.30
2022-09-29T11:56:06.430Z,13.50
2022-09-29T11:58:51.998Z,13.60
2022-09-29T12:01:31.942Z,13.60
2022-09-29T12:04:20.502Z,13.50
2022-09-29T12:06:57.762Z,13.80
2022-09-29T12:10:01.010Z,13.80
2022-09-29T12:12:36.292Z,13.90
2022-09-29T12:15:22.761Z,13.70
2022-09-29T12:17:55.779Z,13.70
2022-09-29T12:20:27.067Z,14.30
2022-09-29T12:22:58.136Z,14.10
2022-09-29T12:25:28.602Z,14.00
2022-09-29T12:28:01.764Z,13.80
2022-09-29T12:30:35.559Z,14.00
2022-09-29T12:33:07.051Z,14.00
2022-09-29T12:35:39.921Z,14.00
2022-09-29T12:38:17.501Z,13.40
2022-09-29T12:40:52.825Z,13.60
2022-09-29T12:43:28.438Z,14.30
2022-09-29T12:46:05.532Z,14.50
2022-09-29T12:48:45.706Z,14.50
2022-09-29T12:51:19.000Z,14.00
2022-09-29T12:54:01.305Z,13.90
2022-09-29T12:56:35.340Z,14.10
2022-09-29T12:59:09.766Z,14.20
2022-09-29T13:01:40.260Z,14.00
2022-09-29T13:04:53.212Z,14.30
2022-09-29T13:07:40.661Z,14.30
2022-09-29T13:10:57.448Z,14.70
2022-09-29T13:13:39.513Z,14.70
2022-09-29T13:16:21.418Z,14.50
2022-09-29T13:19:33.853Z,14.60
2022-09-29T13:22:41.615Z,14.40
2022-09-29T13:25:20.038Z,14.50
2022-09-29T13:27:49.887Z,14.40
2022-09-29T13:30:20.293Z,14.40
2022-09-29T13:32:52.072Z,14.30
2022-09-29T13:35:24.434Z,14.30
2022-09-29T13:37:55.157Z,14.40
2022-09-29T13:40:25.840Z,14.30
2022-09-29T13:42:55.716Z,14.50
2022-09-29T13:45:47.408Z,14.70
2022-09-29T13:48:47.203Z,14.40
2022-09-29T13:51:44.438Z,14.20
2022-09-29T13:54:23.205Z,14.40
2022-09-29T13:56:53.102Z,14.60
2022-09-29T13:59:25.738Z,14.40
2022-09-29T14:01:54.237Z,14.60
2022-09-29T14:04:47.217Z,14.70
2022-09-29T14:07:37.818Z,14.60
2022-09-29T14:10:16.488Z,14.70
2022-09-29T14:12:50.250Z,14.80
2022-09-29T14:15:21.699Z,14.80
2022-09-29T14:17:57.095Z,14.50
2022-09-29T14:20:29.030Z,14.50
2022-09-29T14:23:01.504Z,14.60
2022-09-29T14:25:49.559Z,14.60
2022-09-29T14:28:20.881Z,14.80
2022-09-29T14:30:52.045Z,14.90
2022-09-29T14:33:24.313Z,14.50
2022-09-29T14:36:03.568Z,14.60
2022-09-29T14:38:35.853Z,14.50
2022-09-29T14:41:16.127Z,14.40
2022-09-29T14:43:48.055Z,14.50
2022-09-29T14:47:12.026Z,14.50
2022-09-29T14:50:25.212Z,14.50
2022-09-29T14:53:04.195Z,14.40
2022-09-29T14:55:48.751Z,14.40
2022-09-29T14:58:29.300Z,14.40
2022-09-29T15:01:10.021Z,14.40
2022-09-29T15:03:47.382Z,14.30
2022-09-29T15:06:17.754Z,14.10
2022-09-29T15:08:56.258Z,14.00
2022-09-29T15:11:38.123Z,14.00
2022-09-29T15:14:23.256Z,14.00
2022-09-29T15:16:58.375Z,14.00
2022-09-29T15:19:40.838Z,13.90
2022-09-29T15:22:21.848Z,13.90
2022-09-29T15:25:08.274Z,13.80
2022-09-29T15:27:40.881Z,13.80
2022-09-29T15:30:16.837Z,13.80
2022-09-29T15:32:48.108Z,13.80
2022-09-29T15:35:20.143Z,13.90
2022-09-29T15:38:16.182Z,13.90
2022-09-29T15:40:45.995Z,13.70
2022-09-29T15:43:28.424Z,13.70
2022-09-29T15:45:59.444Z,13.60
2022-09-29T15:48:28.613Z,13.50
2022-09-29T15:50:58.267Z,13.50
2022-09-29T15:53:28.562Z,13.40
2022-09-29T15:55:57.194Z,13.30
2022-09-29T15:58:47.920Z,13.30
2022-09-29T16:01:19.149Z,13.30
2022-09-29T16:03:51.943Z,13.20
2022-09-29T16:06:26.904Z,13.10
2022-09-29T16:08:59.566Z,13.10
2022-09-29T16:11:31.302Z,13.10
2022-09-29T16:14:03.464Z,13.00
2022-09-29T16:16:36.940Z,13.00
2022-09-29T16:19:11.600Z,13.00
2022-09-29T16:21:40.010Z,13.00
2022-09-29T16:24:19.485Z,12.90
2022-09-29T16:26:49.415Z,12.80
2022-09-29T16:29:38.585Z,12.70
2022-09-29T16:32:42.753Z,12.60
2022-09-29T16:35:54.065Z,12.70
2022-09-29T16:38:34.559Z,12.60
2022-09-29T16:41:10.667Z,12.50
2022-09-29T16:43:42.029Z,12.50
2022-09-29T16:46:15.399Z,12.40
2022-09-29T16:48:47.132Z,12.30
2022-09-29T16:54:06.720Z,12.10
2022-09-29T16:56:36.032Z,11.90
2022-09-29T16:59:11.338Z,11.80
2022-09-29T17:01:41.366Z,11.80
2022-09-29T17:04:09.860Z,11.70
2022-09-29T17:06:37.951Z,11.50
2022-09-29T17:09:07.107Z,11.30
2022-09-29T17:11:35.638Z,11.30
2022-09-29T17:14:04.007Z,11.20
2022-09-29T17:16:32.070Z,11.00
2022-09-29T17:19:01.829Z,10.80
2022-09-29T17:21:32.128Z,10.70
2022-09-29T17:24:03.743Z,10.90
2022-09-29T17:26:54.767Z,11.00
2022-09-29T17:29:22.859Z,10.70
2022-09-29T17:31:51.083Z,10.50
2022-09-29T17:34:27.257Z,10.60
2022-09-29T17:36:56.023Z,10.60
2022-09-29T17:39:24.065Z,10.60
2022-09-29T17:41:52.105Z,10.60
2022-09-29T17:44:20.615Z,10.50
2022-09-29T17:46:48.687Z,10.50
2022-09-29T17:49:25.412Z,10.50
2022-09-29T17:51:53.498Z,10.40
2022-09-29T17:54:27.691Z,10.30
2022-09-29T17:57:00.132Z,10.20
2022-09-29T17:59:31.574Z,10.00
2022-09-29T18:01:59.640Z,10.00
2022-09-29T18:04:28.973Z,9.90
2022-09-29T18:06:57.119Z,9.80
2022-09-29T18:09:25.126Z,10.00
2022-09-29T18:11:53.253Z,10.00
2022-09-29T18:14:21.444Z,9.90
2022-09-29T18:16:49.901Z,9.80
2022-09-29T18:19:18.755Z,9.70
2022-09-29T18:21:51.202Z,9.60
2022-09-29T18:24:19.430Z,9.70
2022-09-29T18:26:47.506Z,9.70
2022-09-29T18:29:19.069Z,9.70
2022-09-29T18:31:47.909Z,9.70
2022-09-29T18:34:18.771Z,9.70
2022-09-29T18:36:48.662Z,9.70
2022-09-29T18:39:16.647Z,9.60
2022-09-29T18:41:47.844Z,9.50
2022-09-29T18:44:18.874Z,9.40
2022-09-29T18:46:47.600Z,9.50
2022-09-29T18:49:16.543Z,9.40
2022-09-29T18:51:44.546Z,9.50
2022-09-29T18:54:16.226Z,9.40
2022-09-29T18:56:44.207Z,9.40
2022-09-29T18:59:12.827Z,9.40
2022-09-29T19:01:41.822Z,9.30
2022-09-29T19:04:10.846Z,9.30
2022-09-29T19:06:38.742Z,9.30
2022-09-29T19:09:06.930Z,9.40
2022-09-29T19:11:36.285Z,9.40
2022-09-29T19:14:05.614Z,9.40
2022-09-29T19:16:34.199Z,9.30
2022-09-29T19:19:04.326Z,9.30
2022-09-29T19:21:33.299Z,9.50
2022-09-29T19:24:01.526Z,9.50
2022-09-29T19:26:30.398Z,9.60
2022-09-29T19:29:00.004Z,9.60
2022-09-29T19:31:28.239Z,9.60
2022-09-29T19:33:57.488Z,9.60
2022-09-29T19:36:25.556Z,9.50
2022-09-29T19:38:53.981Z,9.50
2022-09-29T19:41:25.066Z,9.70
2022-09-29T19:43:54.281Z,9.70
2022-09-29T19:46:24.261Z,9.50
2022-09-29T19:48:52.535Z,9.30
2022-09-29T19:51:38.200Z,9.20
2022-09-29T19:54:17.112Z,9.10
2022-09-29T19:56:48.581Z,9.00
2022-09-29T19:59:18.214Z,9.10
2022-09-29T20:01:50.154Z,9.00
2022-09-29T20:04:19.356Z,8.90
2022-09-29T20:06:47.658Z,8.80
2022-09-29T20:09:17.556Z,8.80
2022-09-29T20:11:49.460Z,8.80
2022-09-29T20:14:20.678Z,8.90
2022-09-29T20:16:52.184Z,8.90
2022-09-29T20:19:22.219Z,8.90
2022-09-29T20:21:52.867Z,8.80
2022-09-29T20:24:24.095Z,8.80
2022-09-29T20:26:52.473Z,8.90
2022-09-29T20:29:21.150Z,8.80
2022-09-29T20:31:51.334Z,8.40
2022-09-29T20:34:20.683Z,8.30
2022-09-29T20:36:54.229Z,8.40
2022-09-29T20:39:24.922Z,8.40
2022-09-29T20:41:54.356Z,8.40
2022-09-29T20:44:25.691Z,8.40
2022-09-29T20:46:56.220Z,8.40
2022-09-29T20:49:25.104Z,8.40
2022-09-29T20:51:53.400Z,8.30
2022-09-29T20:54:24.508Z,8.20
2022-09-29T20:56:53.516Z,8.20
2022-09-29T20:59:23.362Z,8.20
2022-09-29T21:01:52.796Z,8.00
2022-09-29T21:04:22.921Z,7.80
2022-09-29T21:06:53.888Z,7.80
2022-09-29T21:09:24.323Z,7.80
2022-09-29T21:11:54.892Z,7.80
2022-09-29T21:14:26.774Z,7.80
2022-09-29T21:16:55.011Z,7.80
2022-09-29T21:19:26.214Z,7.80
2022-09-29T21:21:55.528Z,7.80
2022-09-29T21:24:26.724Z,7.70
2022-09-29T21:26:54.879Z,7.50
2022-09-29T21:29:24.746Z,7.40
2022-09-29T21:31:52.765Z,7.50
2022-09-29T21:34:22.138Z,7.60
2022-09-29T21:36:53.330Z,7.60
2022-09-29T21:39:21.992Z,7.60
2022-09-29T21:41:50.066Z,7.70
2022-09-29T21:44:21.092Z,7.60
2022-09-29T21:46:50.153Z,7.50
2022-09-29T21:49:19.436Z,7.50
2022-09-29T21:51:49.035Z,7.60
2022-09-29T21:54:20.558Z,7.60
2022-09-29T21:56:50.216Z,7.60
2022-09-29T21:59:22.385Z,7.60
2022-09-29T22:01:52.541Z,7.50
2022-09-29T22:04:21.463Z,7.50
2022-09-29T22:06:49.880Z,7.40
2022-09-29T22:09:21.111Z,7.30
2022-09-29T22:11:50.472Z,7.40
2022-09-29T22:14:19.637Z,7.20
2022-09-29T22:16:47.628Z,7.10
2022-09-29T22:19:23.454Z,7.20
2022-09-29T22:21:52.650Z,7.20
2022-09-29T22:24:24.293Z,7.20
2022-09-29T22:26:52.647Z,7.10
2022-09-29T22:29:21.456Z,7.20
2022-09-29T22:31:49.928Z,7.30
2022-09-29T22:34:18.058Z,7.30
2022-09-29T22:36:46.890Z,7.20
2022-09-29T22:39:15.083Z,7.20
2022-09-29T22:41:44.701Z,7.40
2022-09-29T22:44:13.503Z,7.30
2022-09-29T22:46:41.635Z,7.30
2022-09-29T22:49:10.049Z,7.30
2022-09-29T22:51:38.352Z,7.30
2022-09-29T22:54:06.782Z,7.30
2022-09-29T22:56:35.208Z,7.30
2022-09-29T22:59:05.767Z,7.40
2022-09-29T23:01:34.862Z,7.20
2022-09-29T23:04:04.164Z,7.20
2022-09-29T23:06:34.450Z,7.30
2022-09-29T23:09:02.632Z,7.20
2022-09-29T23:11:31.287Z,7.20
2022-09-29T23:14:00.405Z,7.30
2022-09-29T23:16:31.350Z,7.30
2022-09-29T23:18:59.684Z,7.50
2022-09-29T23:21:28.043Z,7.50
2022-09-29T23:23:58.028Z,7.40
2022-09-29T23:26:27.695Z,7.30
2022-09-29T23:28:56.483Z,7.10
2022-09-29T23:31:26.863Z,6.90
2022-09-29T23:33:57.639Z,6.80
2022-09-29T23:36:27.800Z,6.60
2022-09-29T23:39:10.228Z,6.60
2022-09-29T23:41:39.840Z,6.70
2022-09-29T23:44:08.267Z,6.80
2022-09-29T23:46:39.014Z,6.70
2022-09-29T23:49:10.496Z,6.60
2022-09-29T23:51:40.223Z,6.70
2022-09-29T23:54:14.487Z,6.70
2022-09-29T23:56:45.995Z,6.80
2022-09-29T23:59:14.222Z,6.70
